createdAt,value
2023-07-04T00:00:06.236Z,20.08
2023-07-04T00:02:09.228Z,20.08
2023-07-04T00:04:13.527Z,20.04
2023-07-04T00:06:18.667Z,20.05
2023-07-04T00:08:24.669Z,20.03
2023-07-04T00:10:27.525Z,19.98
2023-07-04T00:12:32.762Z,19.95
2023-07-04T00:14:35.478Z,19.91
2023-07-04T00:16:39.058Z,19.89
2023-07-04T00:18:42.516Z,19.85
2023-07-04T00:20:45.673Z,19.79
2023-07-04T00:22:48.622Z,19.80
2023-07-04T00:24:51.321Z,19.78
2023-07-04T00:26:57.792Z,19.79
2023-07-04T00:29:00.773Z,19.78
2023-07-04T00:31:04.433Z,19.77
2023-07-04T00:33:07.625Z,19.75
2023-07-04T00:35:10.390Z,19.73
2023-07-04T00:37:13.904Z,19.70
2023-07-04T00:39:17.297Z,19.65
2023-07-04T00:41:23.305Z,19.63
2023-07-04T00:43:26.132Z,19.63
2023-07-04T00:45:29.031Z,19.60
2023-07-04T00:47:44.692Z,19.55
2023-07-04T00:49:51.177Z,19.58
2023-07-04T00:52:08.175Z,19.58
2023-07-04T00:54:11.145Z,19.59
2023-07-04T00:56:14.272Z,19.59
2023-07-04T00:58:18.239Z,19.58
2023-07-04T01:00:21.651Z,19.61
2023-07-04T01:02:28.722Z,19.60
2023-07-04T01:04:34.311Z,19.57
2023-07-04T01:06:46.643Z,19.58
2023-07-04T01:08:57.573Z,19.58
2023-07-04T01:11:04.618Z,19.56
2023-07-04T01:13:37.472Z,19.59
2023-07-04T01:15:40.335Z,19.56
2023-07-04T01:17:43.949Z,19.55
2023-07-04T01:19:47.731Z,19.55
2023-07-04T01:21:56.703Z,19.58
2023-07-04T01:24:13.706Z,19.58
2023-07-04T01:26:28.178Z,19.56
2023-07-04T01:28:31.339Z,19.56
2023-07-04T01:30:40.230Z,19.57
2023-07-04T01:32:44.038Z,19.58
2023-07-04T01:34:49.100Z,19.57
2023-07-04T01:36:52.000Z,19.60
2023-07-04T01:38:55.070Z,19.62
2023-07-04T01:40:57.948Z,19.66
2023-07-04T01:43:01.210Z,19.68
2023-07-04T01:45:06.842Z,19.70
2023-07-04T01:47:10.728Z,19.73
2023-07-04T01:49:14.089Z,19.74
2023-07-04T01:51:16.925Z,19.73
2023-07-04T01:53:19.648Z,19.76
2023-07-04T01:55:22.705Z,19.77
2023-07-04T01:57:26.105Z,19.75
2023-07-04T01:59:28.838Z,19.77
2023-07-04T02:01:32.060Z,19.76
2023-07-04T02:03:36.194Z,19.79
2023-07-04T02:05:39.877Z,19.79
2023-07-04T02:07:42.775Z,19.83
2023-07-04T02:09:45.569Z,19.91
2023-07-04T02:11:48.436Z,19.89
2023-07-04T02:13:51.292Z,19.92
2023-07-04T02:15:54.236Z,19.94
2023-07-04T02:17:58.877Z,19.96
2023-07-04T02:20:01.868Z,20.01
2023-07-04T02:22:08.677Z,20.09
2023-07-04T02:24:11.816Z,20.09
2023-07-04T02:26:14.580Z,20.12
2023-07-04T02:28:17.298Z,20.17
2023-07-04T02:30:20.132Z,20.24
2023-07-04T02:32:22.948Z,20.24
2023-07-04T02:34:25.834Z,20.28
2023-07-04T02:36:28.625Z,20.27
2023-07-04T02:38:31.479Z,20.29
2023-07-04T02:40:34.335Z,20.32
2023-07-04T02:42:37.180Z,20.33
2023-07-04T02:44:40.033Z,20.38
2023-07-04T02:46:42.793Z,20.41
2023-07-04T02:48:45.701Z,20.41
2023-07-04T02:50:48.602Z,20.47
2023-07-04T02:52:51.320Z,20.51
2023-07-04T02:54:54.363Z,20.55
2023-07-04T02:56:57.096Z,20.64
2023-07-04T02:58:59.779Z,20.69
2023-07-04T03:01:04.951Z,20.77
2023-07-04T03:03:08.031Z,20.82
2023-07-04T03:05:11.111Z,20.88
2023-07-04T03:07:14.149Z,20.90
2023-07-04T03:09:16.915Z,20.93
2023-07-04T03:11:19.732Z,20.94
2023-07-04T03:13:22.616Z,20.99
2023-07-04T03:15:25.707Z,21.01
2023-07-04T03:17:28.550Z,21.08
2023-07-04T03:19:31.277Z,21.11
2023-07-04T03:21:34.141Z,21.19
2023-07-04T03:23:36.930Z,21.23
2023-07-04T03:25:39.766Z,21.25
2023-07-04T03:27:43.097Z,21.30
2023-07-04T03:29:45.838Z,21.36
2023-07-04T03:31:48.530Z,21.42
2023-07-04T03:33:52.049Z,21.46
2023-07-04T03:35:59.614Z,21.50
2023-07-04T03:38:03.152Z,21.52
2023-07-04T03:40:11.357Z,21.60
2023-07-04T03:42:14.350Z,21.62
2023-07-04T03:44:17.082Z,21.66
2023-07-04T03:46:19.982Z,21.72
2023-07-04T03:48:24.092Z,21.76
2023-07-04T03:50:26.902Z,21.82
2023-07-04T03:52:30.183Z,21.90
2023-07-04T03:54:33.263Z,21.95
2023-07-04T03:56:36.006Z,22.00
2023-07-04T03:58:38.790Z,22.07
2023-07-04T04:00:41.561Z,22.13
2023-07-04T04:02:44.481Z,22.15
2023-07-04T04:04:48.453Z,22.10
2023-07-04T04:06:53.259Z,22.20
2023-07-04T04:08:55.988Z,22.22
2023-07-04T04:10:58.950Z,22.31
2023-07-04T04:13:01.846Z,22.34
2023-07-04T04:15:05.458Z,22.37
2023-07-04T04:17:08.391Z,22.37
2023-07-04T04:19:11.133Z,22.37
2023-07-04T04:21:14.094Z,22.42
2023-07-04T04:23:17.335Z,22.41
2023-07-04T04:25:20.769Z,22.47
2023-07-04T04:27:23.739Z,22.53
2023-07-04T04:29:27.538Z,22.62
2023-07-04T04:31:30.800Z,22.71
2023-07-04T04:33:34.121Z,22.77
2023-07-04T04:35:40.358Z,22.82
2023-07-04T04:37:43.281Z,22.89
2023-07-04T04:39:46.148Z,22.89
2023-07-04T04:41:53.796Z,23.00
2023-07-04T04:43:57.962Z,23.05
2023-07-04T04:46:01.834Z,23.13
2023-07-04T04:48:07.631Z,23.11
2023-07-04T04:50:11.017Z,23.20
2023-07-04T04:52:13.782Z,23.27
2023-07-04T04:54:17.274Z,23.28
2023-07-04T04:56:20.169Z,23.22
2023-07-04T04:58:23.021Z,23.27
2023-07-04T05:00:25.829Z,23.25
2023-07-04T05:02:32.587Z,23.32
2023-07-04T05:04:35.590Z,23.32
2023-07-04T05:06:38.425Z,23.38
2023-07-04T05:08:41.171Z,23.37
2023-07-04T05:10:43.987Z,23.37
2023-07-04T05:12:46.756Z,23.41
2023-07-04T05:14:49.668Z,23.41
2023-07-04T05:16:52.357Z,23.37
2023-07-04T05:18:55.514Z,23.45
2023-07-04T05:21:16.773Z,23.47
2023-07-04T05:23:19.967Z,23.43
2023-07-04T05:25:23.682Z,23.42
2023-07-04T05:27:26.627Z,23.47
2023-07-04T05:29:29.370Z,23.55
2023-07-04T05:31:33.906Z,23.52
2023-07-04T05:33:38.010Z,23.52
2023-07-04T05:35:40.748Z,23.66
2023-07-04T05:37:45.141Z,23.73
2023-07-04T05:39:48.047Z,23.69
2023-07-04T05:41:50.676Z,23.73
2023-07-04T05:43:56.250Z,23.75
2023-07-04T05:45:59.160Z,23.89
2023-07-04T05:48:02.078Z,24.00
2023-07-04T05:50:05.262Z,24.10
2023-07-04T05:52:08.490Z,24.13
2023-07-04T05:54:11.248Z,24.09
2023-07-04T05:56:23.460Z,24.02
2023-07-04T05:58:26.329Z,23.98
2023-07-04T06:00:29.295Z,23.99
2023-07-04T06:02:33.291Z,24.04
2023-07-04T06:04:36.429Z,24.04
2023-07-04T06:06:42.602Z,24.01
2023-07-04T06:08:45.539Z,24.07
2023-07-04T06:10:59.007Z,24.13
2023-07-04T06:13:01.798Z,24.19
2023-07-04T06:15:05.100Z,24.27
2023-07-04T06:17:08.331Z,24.33
2023-07-04T06:19:11.196Z,24.51
2023-07-04T06:21:27.144Z,24.60
2023-07-04T06:23:37.572Z,24.52
2023-07-04T06:25:40.428Z,24.59
2023-07-04T06:27:45.617Z,24.66
2023-07-04T06:29:48.974Z,24.72
2023-07-04T06:31:51.958Z,24.76
2023-07-04T06:33:58.328Z,24.80
2023-07-04T06:36:01.912Z,24.90
2023-07-04T06:38:04.625Z,24.95
2023-07-04T06:40:08.178Z,24.99
2023-07-04T06:42:11.024Z,24.97
2023-07-04T06:44:13.676Z,24.96
2023-07-04T06:46:20.217Z,24.99
2023-07-04T06:48:24.472Z,25.11
2023-07-04T06:50:27.822Z,25.26
2023-07-04T06:52:31.989Z,25.35
2023-07-04T06:54:35.742Z,25.44
2023-07-04T06:56:39.366Z,25.42
2023-07-04T06:58:56.038Z,25.50
2023-07-04T07:00:58.914Z,25.60
2023-07-04T07:03:01.794Z,25.70
2023-07-04T07:05:06.419Z,25.78
2023-07-04T07:07:11.439Z,25.85
2023-07-04T07:09:14.373Z,25.83
2023-07-04T07:11:19.247Z,25.82
2023-07-04T07:13:22.262Z,25.78
2023-07-04T07:15:26.633Z,25.76
2023-07-04T07:17:29.487Z,25.76
2023-07-04T07:19:32.963Z,25.80
2023-07-04T07:21:36.627Z,25.84
2023-07-04T07:23:40.799Z,25.89
2023-07-04T07:25:43.610Z,25.99
2023-07-04T07:27:46.368Z,26.13
2023-07-04T07:29:49.727Z,26.26
2023-07-04T07:31:52.638Z,26.23
2023-07-04T07:33:55.800Z,26.25
2023-07-04T07:35:59.526Z,26.30
2023-07-04T07:38:02.444Z,26.26
2023-07-04T07:40:05.804Z,26.28
2023-07-04T07:42:08.712Z,26.40
2023-07-04T07:44:12.530Z,26.44
2023-07-04T07:46:17.846Z,26.51
2023-07-04T07:48:20.725Z,26.67
2023-07-04T07:50:23.543Z,26.82
2023-07-04T07:52:26.419Z,26.93
2023-07-04T07:54:29.456Z,27.06
2023-07-04T07:56:45.652Z,27.21
2023-07-04T07:58:49.753Z,27.31
2023-07-04T08:00:52.798Z,27.34
2023-07-04T08:02:55.841Z,27.47
2023-07-04T08:04:58.701Z,27.52
2023-07-04T08:07:01.458Z,27.56
2023-07-04T08:09:06.249Z,27.68
2023-07-04T08:11:14.814Z,27.81
2023-07-04T08:13:19.396Z,27.93
2023-07-04T08:15:22.337Z,28.00
2023-07-04T08:17:25.235Z,28.12
2023-07-04T08:19:28.399Z,28.23
2023-07-04T08:21:31.231Z,28.24
2023-07-04T08:23:34.534Z,27.98
2023-07-04T08:25:40.254Z,27.82
2023-07-04T08:27:43.371Z,27.93
2023-07-04T08:29:48.708Z,28.15
2023-07-04T08:31:52.089Z,28.30
2023-07-04T08:33:54.985Z,28.21
2023-07-04T08:36:04.089Z,28.01
2023-07-04T08:38:06.806Z,28.06
2023-07-04T08:40:12.601Z,27.99
2023-07-04T08:42:18.401Z,27.97
2023-07-04T08:44:23.933Z,27.79
2023-07-04T08:46:33.904Z,27.80
2023-07-04T08:48:37.887Z,27.89
2023-07-04T08:50:41.591Z,28.09
2023-07-04T08:53:05.545Z,28.17
2023-07-04T08:55:14.850Z,28.15
2023-07-04T08:57:39.323Z,27.87
2023-07-04T08:59:45.359Z,27.66
2023-07-04T09:02:05.957Z,27.93
2023-07-04T09:04:24.721Z,28.12
2023-07-04T09:07:02.963Z,28.37
2023-07-04T09:09:33.366Z,28.44
2023-07-04T09:11:37.190Z,28.56
2023-07-04T09:13:43.695Z,28.50
2023-07-04T09:15:49.104Z,28.29
2023-07-04T09:18:20.170Z,27.95
2023-07-04T09:20:25.396Z,28.15
2023-07-04T09:22:28.989Z,28.23
2023-07-04T09:24:32.913Z,28.01
2023-07-04T09:26:51.393Z,27.94
2023-07-04T09:28:57.081Z,28.00
2023-07-04T09:31:01.067Z,27.96
2023-07-04T09:33:03.985Z,28.09
2023-07-04T09:35:08.071Z,28.16
2023-07-04T09:37:15.204Z,28.21
2023-07-04T09:39:18.110Z,28.42
2023-07-04T09:41:26.851Z,28.52
2023-07-04T09:43:31.575Z,28.68
2023-07-04T09:45:35.088Z,28.61
2023-07-04T09:47:42.317Z,28.52
2023-07-04T09:49:45.833Z,28.66
2023-07-04T09:52:18.828Z,28.64
2023-07-04T09:54:21.581Z,28.52
2023-07-04T09:56:28.246Z,28.55
2023-07-04T09:58:31.255Z,28.51
2023-07-04T10:00:34.232Z,28.53
2023-07-04T10:02:37.134Z,28.50
2023-07-04T10:04:42.147Z,28.34
2023-07-04T10:06:45.935Z,28.19
2023-07-04T10:08:57.230Z,28.20
2023-07-04T10:11:00.671Z,28.31
2023-07-04T10:13:03.872Z,28.53
2023-07-04T10:15:07.671Z,28.72
2023-07-04T10:17:16.707Z,28.79
2023-07-04T10:19:24.454Z,29.02
2023-07-04T10:21:27.466Z,28.95
2023-07-04T10:23:31.593Z,28.83
2023-07-04T10:25:34.912Z,28.82
2023-07-04T10:27:39.284Z,28.83
2023-07-04T10:29:47.918Z,29.01
2023-07-04T10:31:51.046Z,29.28
2023-07-04T10:34:05.574Z,29.32
2023-07-04T10:36:12.297Z,29.38
2023-07-04T10:38:33.869Z,29.50
2023-07-04T10:40:40.477Z,29.72
2023-07-04T10:42:49.284Z,29.92
2023-07-04T10:44:54.561Z,29.96
2023-07-04T10:47:11.467Z,30.05
2023-07-04T10:49:20.428Z,30.12
2023-07-04T10:51:29.365Z,30.01
2023-07-04T10:53:32.057Z,29.89
2023-07-04T10:55:37.515Z,29.85
2023-07-04T10:57:46.215Z,29.76
2023-07-04T10:59:52.268Z,29.48
2023-07-04T11:02:11.964Z,29.38
2023-07-04T11:04:29.990Z,29.66
2023-07-04T11:06:44.099Z,29.90
2023-07-04T11:08:48.303Z,29.73
2023-07-04T11:11:00.991Z,29.50
2023-07-04T11:13:04.040Z,29.48
2023-07-04T11:15:19.536Z,29.43
2023-07-04T11:17:23.139Z,29.79
2023-07-04T11:19:28.310Z,30.20
2023-07-04T11:21:31.844Z,30.47
2023-07-04T11:24:09.340Z,30.41
2023-07-04T11:26:12.391Z,30.66
2023-07-04T11:28:36.345Z,30.67
2023-07-04T11:30:42.810Z,30.65
2023-07-04T11:32:56.180Z,30.64
2023-07-04T11:35:15.802Z,30.87
2023-07-04T11:37:25.452Z,31.05
2023-07-04T11:39:39.856Z,31.37
2023-07-04T11:41:43.476Z,31.43
2023-07-04T11:43:48.572Z,31.71
2023-07-04T11:45:55.840Z,32.00
2023-07-04T11:48:04.774Z,32.20
2023-07-04T11:50:15.274Z,32.32
2023-07-04T11:52:22.045Z,32.51
2023-07-04T11:54:27.142Z,32.70
2023-07-04T11:56:29.878Z,32.53
2023-07-04T11:58:32.671Z,32.07
2023-07-04T12:00:41.037Z,32.13
2023-07-04T12:02:46.911Z,32.68
2023-07-04T12:04:50.623Z,32.95
2023-07-04T12:07:00.424Z,33.19
2023-07-04T12:09:03.658Z,33.45
2023-07-04T12:11:09.672Z,33.79
2023-07-04T12:13:22.047Z,33.58
2023-07-04T12:15:31.144Z,33.29
2023-07-04T12:17:34.964Z,33.55
2023-07-04T12:19:37.796Z,34.01
2023-07-04T12:21:44.009Z,34.52
2023-07-04T12:23:48.121Z,34.72
2023-07-04T12:25:53.563Z,34.22
2023-07-04T12:27:59.748Z,34.01
2023-07-04T12:30:04.507Z,33.96
2023-07-04T12:32:13.946Z,33.90
2023-07-04T12:34:25.390Z,34.03
2023-07-04T12:36:36.164Z,33.88
2023-07-04T12:38:50.062Z,33.69
2023-07-04T12:40:53.600Z,33.70
2023-07-04T12:44:37.461Z,33.74
2023-07-04T12:45:30.990Z,33.78
2023-07-04T12:47:36.955Z,33.97
2023-07-04T12:49:40.110Z,34.09
2023-07-04T12:51:46.064Z,34.04
2023-07-04T12:53:50.357Z,33.90
2023-07-04T12:55:57.725Z,34.19
2023-07-04T12:58:02.171Z,34.11
2023-07-04T13:00:15.936Z,34.27
2023-07-04T13:02:27.263Z,34.57
2023-07-04T13:04:30.208Z,35.14
2023-07-04T13:06:33.359Z,35.50
2023-07-04T13:08:48.436Z,35.72
2023-07-04T13:10:55.153Z,35.57
2023-07-04T13:12:58.176Z,35.34
2023-07-04T13:15:09.752Z,35.06
2023-07-04T13:17:13.984Z,34.66
2023-07-04T13:19:19.965Z,34.70
2023-07-04T13:21:32.920Z,34.90
2023-07-04T13:25:47.057Z,34.73
2023-07-04T13:30:21.790Z,34.87
2023-07-04T13:30:32.782Z,35.05
2023-07-04T13:34:47.385Z,35.30
2023-07-04T13:37:02.180Z,35.13
2023-07-04T13:41:13.263Z,35.28
2023-07-04T13:45:23.067Z,35.24
2023-07-04T13:47:25.970Z,35.22
2023-07-04T13:49:28.990Z,35.46
2023-07-04T13:51:32.291Z,35.53
2023-07-04T13:53:35.203Z,35.93
2023-07-04T13:55:38.019Z,36.60
2023-07-04T13:57:40.797Z,37.08
2023-07-04T13:59:44.180Z,37.45
2023-07-04T14:06:00.619Z,37.28
2023-07-04T14:08:04.137Z,37.62
2023-07-04T14:10:12.423Z,37.68
2023-07-04T14:12:23.442Z,37.64
2023-07-04T14:20:44.875Z,36.94
2023-07-04T14:22:47.801Z,37.33
2023-07-04T14:24:50.753Z,36.99
2023-07-04T14:26:54.512Z,36.78
2023-07-04T14:28:57.264Z,36.81
2023-07-04T14:31:00.147Z,37.22
2023-07-04T14:33:03.163Z,37.10
2023-07-04T14:35:06.888Z,37.24
2023-07-04T14:37:10.120Z,36.89
2023-07-04T14:39:13.505Z,36.79
2023-07-04T14:43:21.829Z,36.90
2023-07-04T14:45:24.701Z,37.12
2023-07-04T14:47:27.654Z,36.81
2023-07-04T14:49:30.458Z,36.66
2023-07-04T14:51:33.275Z,37.10
2023-07-04T14:53:37.777Z,37.61
2023-07-04T14:55:40.728Z,38.30
2023-07-04T14:57:44.912Z,38.67
2023-07-04T14:59:48.431Z,38.79
2023-07-04T15:01:51.520Z,38.95
2023-07-04T15:04:00.276Z,39.20
2023-07-04T15:06:08.641Z,39.28
2023-07-04T15:08:12.073Z,39.30
2023-07-04T15:10:16.947Z,39.45
2023-07-04T15:12:20.710Z,39.77
2023-07-04T15:14:24.081Z,40.18
2023-07-04T15:16:27.059Z,40.61
2023-07-04T15:18:38.786Z,40.21
2023-07-04T15:20:41.638Z,39.88
2023-07-04T15:22:44.578Z,39.87
2023-07-04T15:24:47.386Z,40.02
2023-07-04T15:26:50.270Z,40.29
2023-07-04T15:28:55.390Z,40.32
2023-07-04T15:30:58.483Z,40.28
2023-07-04T15:33:01.286Z,40.15
2023-07-04T15:35:05.232Z,40.16
2023-07-04T15:37:11.219Z,40.29
2023-07-04T15:39:16.426Z,40.15
2023-07-04T15:41:22.900Z,39.69
2023-07-04T15:43:28.024Z,39.32
2023-07-04T15:45:32.263Z,38.88
2023-07-04T15:47:35.018Z,38.72
2023-07-04T15:49:37.728Z,38.68
2023-07-04T15:51:41.196Z,38.84
2023-07-04T15:53:44.737Z,38.86
2023-07-04T15:55:48.071Z,38.52
2023-07-04T15:57:51.032Z,38.16
2023-07-04T15:59:54.302Z,37.61
2023-07-04T16:01:57.390Z,36.94
2023-07-04T16:04:01.780Z,36.02
2023-07-04T16:06:08.137Z,35.30
2023-07-04T16:08:12.259Z,34.63
2023-07-04T16:10:15.510Z,34.12
2023-07-04T16:12:19.046Z,34.04
2023-07-04T16:14:22.184Z,34.03
2023-07-04T16:16:27.520Z,33.62
2023-07-04T16:18:30.855Z,33.60
2023-07-04T16:20:34.707Z,33.58
2023-07-04T16:22:37.974Z,33.32
2023-07-04T16:24:41.182Z,33.09
2023-07-04T16:26:44.282Z,33.00
2023-07-04T16:28:47.624Z,32.97
2023-07-04T16:30:51.364Z,32.85
2023-07-04T16:32:54.635Z,32.73
2023-07-04T16:34:57.624Z,32.66
2023-07-04T16:37:00.841Z,32.57
2023-07-04T16:39:03.948Z,32.43
2023-07-04T16:41:13.145Z,32.21
2023-07-04T16:43:16.607Z,32.17
2023-07-04T16:45:20.391Z,32.06
2023-07-04T16:47:23.736Z,31.87
2023-07-04T16:49:27.462Z,31.76
2023-07-04T16:51:30.695Z,31.75
2023-07-04T16:53:33.978Z,31.56
2023-07-04T16:55:39.056Z,31.38
2023-07-04T16:57:43.207Z,31.23
2023-07-04T16:59:46.957Z,31.01
2023-07-04T17:01:50.124Z,30.87
2023-07-04T17:03:53.436Z,30.64
2023-07-04T17:06:01.945Z,30.45
2023-07-04T17:08:05.182Z,30.24
2023-07-04T17:10:09.227Z,30.09
2023-07-04T17:12:12.310Z,29.82
2023-07-04T17:14:15.393Z,29.65
2023-07-04T17:16:18.446Z,29.52
2023-07-04T17:18:21.526Z,29.42
2023-07-04T17:20:24.388Z,29.33
2023-07-04T17:22:27.364Z,29.27
2023-07-04T17:24:30.423Z,29.19
2023-07-04T17:26:33.573Z,29.07
2023-07-04T17:28:36.867Z,28.98
2023-07-04T17:30:40.817Z,28.89
2023-07-04T17:32:44.266Z,28.80
2023-07-04T17:34:47.331Z,28.72
2023-07-04T17:36:50.615Z,28.62
2023-07-04T17:38:53.598Z,28.49
2023-07-04T17:41:05.301Z,28.39
2023-07-04T17:43:08.175Z,28.35
2023-07-04T17:45:11.312Z,28.25
2023-07-04T17:47:14.163Z,28.23
2023-07-04T17:49:16.956Z,28.22
2023-07-04T17:51:22.677Z,28.20
2023-07-04T17:53:25.632Z,28.22
2023-07-04T17:55:28.860Z,28.15
2023-07-04T17:57:31.697Z,28.04
2023-07-04T17:59:34.533Z,27.92
2023-07-04T18:01:37.385Z,27.80
2023-07-04T18:03:41.821Z,27.69
2023-07-04T18:05:44.840Z,27.60
2023-07-04T18:07:47.541Z,27.53
2023-07-04T18:09:52.029Z,27.48
2023-07-04T18:11:54.895Z,27.43
2023-07-04T18:13:58.973Z,27.37
2023-07-04T18:16:02.019Z,27.30
2023-07-04T18:18:04.896Z,27.25
2023-07-04T18:20:08.424Z,27.16
2023-07-04T18:22:11.900Z,27.09
2023-07-04T18:24:14.787Z,27.02
2023-07-04T18:26:18.160Z,26.93
2023-07-04T18:28:21.911Z,26.96
2023-07-04T18:30:24.684Z,26.96
2023-07-04T18:32:27.422Z,26.99
2023-07-04T18:34:30.362Z,26.99
2023-07-04T18:36:38.537Z,26.99
2023-07-04T18:38:42.657Z,26.99
2023-07-04T18:40:52.332Z,26.98
2023-07-04T18:42:55.790Z,26.89
2023-07-04T18:44:58.787Z,26.88
2023-07-04T18:47:01.854Z,26.76
2023-07-04T18:49:06.498Z,26.68
2023-07-04T18:51:21.103Z,26.56
2023-07-04T18:53:23.900Z,26.41
2023-07-04T18:55:26.574Z,26.38
2023-07-04T18:57:29.821Z,26.26
2023-07-04T18:59:32.738Z,26.20
2023-07-04T19:01:36.221Z,26.19
2023-07-04T19:03:39.748Z,26.12
2023-07-04T19:05:43.030Z,26.07
2023-07-04T19:07:45.800Z,25.97
2023-07-04T19:09:48.581Z,25.90
2023-07-04T19:11:52.441Z,25.85
2023-07-04T19:14:07.105Z,25.80
2023-07-04T19:16:10.919Z,25.71
2023-07-04T19:18:13.947Z,25.68
2023-07-04T19:20:16.832Z,25.65
2023-07-04T19:22:19.849Z,25.61
2023-07-04T19:24:24.408Z,25.51
2023-07-04T19:26:27.620Z,25.40
2023-07-04T19:28:30.442Z,25.35
2023-07-04T19:30:37.034Z,25.30
2023-07-04T19:32:39.820Z,25.22
2023-07-04T19:34:43.088Z,25.18
2023-07-04T19:36:46.545Z,25.12
2023-07-04T19:38:50.154Z,25.08
2023-07-04T19:40:57.992Z,25.02
2023-07-04T19:43:00.785Z,24.95
2023-07-04T19:45:03.702Z,24.92
2023-07-04T19:47:07.448Z,24.85
2023-07-04T19:49:10.646Z,24.76
2023-07-04T19:51:19.842Z,24.72
2023-07-04T19:53:22.878Z,24.64
2023-07-04T19:55:25.775Z,24.60
2023-07-04T19:57:29.402Z,24.53
2023-07-04T19:59:32.329Z,24.41
2023-07-04T20:01:37.660Z,24.40
2023-07-04T20:03:41.999Z,24.36
2023-07-04T20:05:44.965Z,24.34
2023-07-04T20:07:47.672Z,24.30
2023-07-04T20:09:50.457Z,24.26
2023-07-04T20:11:53.363Z,24.22
2023-07-04T20:13:56.374Z,24.13
2023-07-04T20:16:01.498Z,24.03
2023-07-04T20:18:04.457Z,23.96
2023-07-04T20:20:08.165Z,23.95
2023-07-04T20:22:11.963Z,23.87
2023-07-04T20:24:14.828Z,23.75
2023-07-04T20:26:19.894Z,23.64
2023-07-04T20:28:24.433Z,23.61
2023-07-04T20:30:31.617Z,23.61
2023-07-04T20:32:34.556Z,23.58
2023-07-04T20:34:37.636Z,23.50
2023-07-04T20:36:40.460Z,23.47
2023-07-04T20:38:43.557Z,23.45
2023-07-04T20:40:47.502Z,23.43
2023-07-04T20:42:50.681Z,23.39
2023-07-04T20:44:54.123Z,23.38
2023-07-04T20:47:00.488Z,23.37
2023-07-04T20:49:04.138Z,23.38
2023-07-04T20:51:10.543Z,23.40
2023-07-04T20:53:14.045Z,23.43
2023-07-04T20:55:17.440Z,23.41
2023-07-04T20:57:20.509Z,23.38
2023-07-04T20:59:25.130Z,23.34
2023-07-04T21:01:28.203Z,23.33
2023-07-04T21:03:31.401Z,23.37
2023-07-04T21:05:35.379Z,23.37
2023-07-04T21:07:42.469Z,23.39
2023-07-04T21:09:45.624Z,23.38
2023-07-04T21:11:48.444Z,23.30
2023-07-04T21:13:51.402Z,23.31
2023-07-04T21:15:54.521Z,23.27
2023-07-04T21:17:58.047Z,23.19
2023-07-04T21:20:01.574Z,23.14
2023-07-04T21:22:06.540Z,23.09
2023-07-04T21:24:10.350Z,23.05
2023-07-04T21:26:13.061Z,23.04
2023-07-04T21:28:15.812Z,23.03
2023-07-04T21:30:19.132Z,23.04
2023-07-04T21:32:21.988Z,23.04
2023-07-04T21:34:24.810Z,23.01
2023-07-04T21:36:27.653Z,22.97
2023-07-04T21:38:30.923Z,22.89
2023-07-04T21:40:35.230Z,22.82
2023-07-04T21:42:37.887Z,22.69
2023-07-04T21:44:41.138Z,22.71
2023-07-04T21:46:44.493Z,22.70
2023-07-04T21:48:47.259Z,22.68
2023-07-04T21:50:52.215Z,22.67
2023-07-04T21:52:54.874Z,22.69
2023-07-04T21:54:57.629Z,22.70
2023-07-04T21:57:01.259Z,22.70
2023-07-04T21:59:04.337Z,22.70
2023-07-04T22:01:08.174Z,22.73
2023-07-04T22:03:11.229Z,22.78
2023-07-04T22:05:14.018Z,22.82
2023-07-04T22:07:16.941Z,22.89
2023-07-04T22:09:20.583Z,22.92
2023-07-04T22:11:23.714Z,22.94
2023-07-04T22:13:28.396Z,22.96
2023-07-04T22:15:31.439Z,22.98
2023-07-04T22:17:34.308Z,22.97
2023-07-04T22:19:37.097Z,23.00
2023-07-04T22:21:40.035Z,23.01
2023-07-04T22:23:43.217Z,23.02
2023-07-04T22:25:46.107Z,22.98
2023-07-04T22:27:48.841Z,22.99
2023-07-04T22:29:51.559Z,23.01
2023-07-04T22:31:54.327Z,22.99
2023-07-04T22:34:04.161Z,22.97
2023-07-04T22:36:06.972Z,22.95
2023-07-04T22:38:09.731Z,22.91
2023-07-04T22:40:12.745Z,22.89
2023-07-04T22:42:15.560Z,22.83
2023-07-04T22:44:18.344Z,22.82
2023-07-04T22:46:22.365Z,22.76
2023-07-04T22:48:27.339Z,22.74
2023-07-04T22:50:30.153Z,22.74
2023-07-04T22:52:32.956Z,22.74
2023-07-04T22:54:35.673Z,22.70
2023-07-04T22:56:38.400Z,22.73
2023-07-04T22:58:41.176Z,22.75
2023-07-04T23:00:44.259Z,22.74
2023-07-04T23:02:49.255Z,22.73
2023-07-04T23:04:52.341Z,22.71
2023-07-04T23:06:55.258Z,22.64
2023-07-04T23:08:58.072Z,22.58
2023-07-04T23:11:01.179Z,22.56
2023-07-04T23:13:03.944Z,22.56
2023-07-04T23:15:07.237Z,22.52
2023-07-04T23:17:12.676Z,22.44
2023-07-04T23:19:15.462Z,22.41
2023-07-04T23:21:19.989Z,22.38
2023-07-04T23:23:23.035Z,22.33
2023-07-04T23:25:28.523Z,22.26
2023-07-04T23:27:31.784Z,22.20
2023-07-04T23:29:34.588Z,22.13
2023-07-04T23:31:37.256Z,22.07
2023-07-04T23:33:41.781Z,21.99
2023-07-04T23:35:44.454Z,21.91
2023-07-04T23:37:47.280Z,21.86
2023-07-04T23:39:50.355Z,21.80
2023-07-04T23:41:53.099Z,21.76
2023-07-04T23:43:55.837Z,21.71
2023-07-04T23:45:59.013Z,21.66
2023-07-04T23:48:02.092Z,21.63
2023-07-04T23:50:05.366Z,21.56
2023-07-04T23:52:08.376Z,21.55
2023-07-04T23:54:11.424Z,21.52
2023-07-04T23:56:14.196Z,21.48
2023-07-04T23:58:16.957Z,21.46
